Time;durP1;ratioP1;P1;durP2;ratioP2;P2;SDS_P1;SDS_P2;PMS_P1;PMS_P2;Temp;Humidity;BMP_temperature;BMP_pressure;BME280_temperature;BME280_humidity;BME280_pressure;Samples;Min_cycle;Max_cycle;Signal;HPM_P1;HPM_P2
2022/07/10 00:00:11;;;;;;;2.10;0.30;;;14.30;99.90;;;;;;5037295;28;20156;-77
2022/07/10 00:02:38;;;;;;;3.92;0.45;;;14.30;99.90;;;;;;5035929;28;20036;-77
2022/07/10 00:05:05;;;;;;;1.35;0.63;;;14.30;99.90;;;;;;5023621;28;20041;-76
2022/07/10 00:07:31;;;;;;;0.30;0.22;;;14.20;99.90;;;;;;5039293;28;20039;-76
2022/07/10 00:09:56;;;;;;;0.52;0.20;;;14.20;99.90;;;;;;5042764;28;20037;-77
2022/07/10 00:12:22;;;;;;;0.30;0.20;;;14.20;99.90;;;;;;5025864;28;20060;-76
2022/07/10 00:14:48;;;;;;;0.85;0.30;;;14.20;99.90;;;;;;5060920;28;20094;-77
2022/07/10 00:17:13;;;;;;;3.72;0.50;;;14.20;99.90;;;;;;5043542;28;20128;-76
2022/07/10 00:19:39;;;;;;;0.43;0.22;;;14.10;99.90;;;;;;5053013;28;20481;-76
2022/07/10 00:22:05;;;;;;;1.17;0.30;;;14.10;99.90;;;;;;5039438;28;20041;-76
2022/07/10 00:24:30;;;;;;;1.70;0.30;;;14.10;99.90;;;;;;5041734;28;20132;-77
2022/07/10 00:26:56;;;;;;;1.35;0.50;;;14.10;99.90;;;;;;5040647;28;20044;-77
2022/07/10 00:29:22;;;;;;;1.45;0.32;;;14.10;99.90;;;;;;5041622;28;20071;-77
2022/07/10 00:31:47;;;;;;;2.38;0.30;;;14.00;99.90;;;;;;5038597;28;20395;-77
2022/07/10 00:34:13;;;;;;;2.92;0.25;;;14.00;99.90;;;;;;5040270;28;20037;-76
2022/07/10 00:36:39;;;;;;;2.50;0.43;;;14.00;99.90;;;;;;5041188;28;20502;-77
2022/07/10 00:39:04;;;;;;;1.55;0.13;;;13.90;99.90;;;;;;5047506;28;20037;-76
2022/07/10 00:41:30;;;;;;;1.83;0.47;;;13.90;99.90;;;;;;5056804;28;20474;-77
2022/07/10 00:44:00;;;;;;;1.45;0.43;;;13.80;99.90;;;;;;5042249;28;20037;-77
2022/07/10 00:46:27;;;;;;;0.80;0.30;;;13.90;99.90;;;;;;5042556;28;20735;-77
2022/07/10 00:48:54;;;;;;;0.22;0.08;;;13.90;99.90;;;;;;5035513;28;20033;-77
2022/07/10 00:51:23;;;;;;;1.08;0.10;;;13.80;99.90;;;;;;5040152;28;20037;-77
2022/07/10 00:53:49;;;;;;;0.95;0.30;;;13.90;99.90;;;;;;5041785;28;20043;-77
2022/07/10 00:56:22;;;;;;;2.60;0.52;;;13.90;99.90;;;;;;5057712;28;20060;-76
2022/07/10 00:58:49;;;;;;;1.13;0.30;;;13.80;99.90;;;;;;5046454;28;20037;-77
2022/07/10 01:01:16;;;;;;;0.40;0.20;;;13.90;99.90;;;;;;5039198;28;20170;-77
2022/07/10 01:03:43;;;;;;;0.63;0.28;;;13.90;99.90;;;;;;5025183;28;20052;-76
2022/07/10 01:06:09;;;;;;;3.85;0.28;;;13.80;99.90;;;;;;5039330;28;20048;-77
2022/07/10 01:08:36;;;;;;;3.88;0.63;;;13.80;99.90;;;;;;5040055;28;20089;-77
2022/07/10 01:11:01;;;;;;;1.27;0.45;;;13.80;99.90;;;;;;5057847;28;20037;-77
2022/07/10 01:13:27;;;;;;;0.10;0.10;;;13.80;99.90;;;;;;5055038;28;20513;-77
2022/07/10 01:15:53;;;;;;;0.38;0.20;;;13.70;99.90;;;;;;5038448;28;20163;-77
2022/07/10 01:18:20;;;;;;;1.20;0.40;;;13.80;99.90;;;;;;5040037;28;20135;-77
2022/07/10 01:20:45;;;;;;;3.78;0.50;;;13.80;99.90;;;;;;5042165;28;20051;-77
2022/07/10 01:23:11;;;;;;;3.83;0.35;;;13.80;99.90;;;;;;5037068;28;20045;-77
2022/07/10 01:25:37;;;;;;;1.60;0.50;;;13.80;99.90;;;;;;5041927;28;20029;-76
2022/07/10 01:28:03;;;;;;;7.72;0.43;;;13.90;99.90;;;;;;5038757;28;20072;-76
2022/07/10 01:30:28;;;;;;;3.20;0.38;;;13.90;99.90;;;;;;5042809;28;20128;-77
2022/07/10 01:32:54;;;;;;;1.02;0.20;;;14.00;99.90;;;;;;5042657;28;20487;-77
2022/07/10 01:35:20;;;;;;;2.40;0.30;;;14.00;99.90;;;;;;5045965;28;20048;-77
2022/07/10 01:37:46;;;;;;;0.80;0.40;;;14.00;99.90;;;;;;5043506;28;20041;-77
2022/07/10 01:40:12;;;;;;;0.77;0.40;;;14.00;99.90;;;;;;5040743;28;20040;-77
2022/07/10 01:42:38;;;;;;;1.55;0.43;;;14.00;99.90;;;;;;5021968;28;20037;-77
2022/07/10 01:45:06;;;;;;;1.50;0.30;;;13.90;99.90;;;;;;5039251;28;20619;-77
2022/07/10 01:47:32;;;;;;;1.10;0.30;;;13.90;99.90;;;;;;5057782;28;20052;-77
2022/07/10 01:49:58;;;;;;;2.47;0.30;;;13.80;99.90;;;;;;5040647;28;20037;-76
2022/07/10 01:52:23;;;;;;;2.17;0.20;;;13.80;99.90;;;;;;5046185;28;20049;-77
2022/07/10 01:54:49;;;;;;;0.35;0.20;;;13.80;99.90;;;;;;5038644;28;20040;-77
2022/07/10 01:57:15;;;;;;;1.20;0.38;;;13.70;99.90;;;;;;5041463;28;20560;-77
2022/07/10 01:59:41;;;;;;;0.32;0.10;;;13.70;99.90;;;;;;5039143;28;20497;-77
2022/07/10 02:02:08;;;;;;;2.50;0.28;;;13.60;99.90;;;;;;5046938;28;20048;-77
2022/07/10 02:04:42;;;;;;;5.28;0.40;;;13.60;99.90;;;;;;5047009;28;20557;-76
2022/07/10 02:07:09;;;;;;;0.10;0.10;;;13.60;99.90;;;;;;5040677;28;20029;-77
2022/07/10 02:09:35;;;;;;;0.70;0.32;;;13.50;99.90;;;;;;5024030;28;20028;-77
2022/07/10 02:12:01;;;;;;;0.22;0.20;;;13.50;99.90;;;;;;5044132;28;20661;-77
2022/07/10 02:14:26;;;;;;;4.28;0.38;;;13.40;99.90;;;;;;5046841;28;20117;-77
2022/07/10 02:16:52;;;;;;;0.95;0.30;;;13.40;99.90;;;;;;5042355;28;20052;-77
2022/07/10 02:19:18;;;;;;;1.75;0.28;;;13.40;99.90;;;;;;5040918;28;20037;-77
2022/07/10 02:21:43;;;;;;;0.65;0.30;;;13.40;99.90;;;;;;5041721;28;20041;-77
2022/07/10 02:24:09;;;;;;;2.08;0.32;;;13.30;99.90;;;;;;5040431;28;20059;-77
2022/07/10 02:26:34;;;;;;;1.95;0.40;;;13.30;99.90;;;;;;5043666;28;20133;-76
2022/07/10 02:29:00;;;;;;;2.72;0.30;;;13.30;99.90;;;;;;5039245;28;20044;-77
2022/07/10 02:31:26;;;;;;;0.85;0.35;;;13.30;99.90;;;;;;5023672;28;20397;-77
2022/07/10 02:33:51;;;;;;;0.20;0.10;;;13.30;99.90;;;;;;5024643;28;20036;-76
2022/07/10 02:36:17;;;;;;;1.60;0.30;;;13.20;99.90;;;;;;5043818;28;20044;-77
2022/07/10 02:38:42;;;;;;;2.20;0.30;;;13.20;99.90;;;;;;5048367;28;20059;-77
2022/07/10 02:41:08;;;;;;;1.38;0.22;;;13.20;99.90;;;;;;5038919;28;20041;-77
2022/07/10 02:43:34;;;;;;;0.90;0.20;;;13.20;99.90;;;;;;5022593;28;20033;-76
2022/07/10 02:46:00;;;;;;;1.23;0.45;;;13.10;99.90;;;;;;5040333;28;20164;-77
2022/07/10 02:48:25;;;;;;;0.47;0.22;;;13.00;99.90;;;;;;5037774;28;20511;-76
2022/07/10 02:50:52;;;;;;;1.65;0.30;;;13.00;99.90;;;;;;5042312;28;20060;-77
2022/07/10 02:53:17;;;;;;;2.60;0.40;;;12.90;99.90;;;;;;5038217;28;20056;-76
2022/07/10 02:55:43;;;;;;;1.27;0.35;;;12.90;99.90;;;;;;5036866;28;20041;-76
2022/07/10 02:58:09;;;;;;;1.48;0.40;;;12.90;99.90;;;;;;5038054;28;20055;-76
2022/07/10 03:00:36;;;;;;;0.32;0.10;;;12.80;99.90;;;;;;5019035;28;20033;-77
2022/07/10 03:03:01;;;;;;;1.13;0.35;;;12.90;99.90;;;;;;5038826;28;20053;-76
2022/07/10 03:05:27;;;;;;;0.43;0.20;;;12.80;99.90;;;;;;5041347;28;20051;-77
2022/07/10 03:07:53;;;;;;;1.77;0.60;;;12.80;99.90;;;;;;5040009;28;20036;-76
2022/07/10 03:10:19;;;;;;;8.30;0.70;;;12.80;99.90;;;;;;5040100;28;20028;-76
2022/07/10 03:12:44;;;;;;;0.45;0.20;;;12.80;99.90;;;;;;5043025;28;20108;-76
2022/07/10 03:15:10;;;;;;;0.57;0.30;;;12.70;99.90;;;;;;5023402;28;20041;-76
2022/07/10 03:17:36;;;;;;;3.65;0.77;;;12.70;99.90;;;;;;5038790;28;20418;-76
2022/07/10 03:20:01;;;;;;;2.92;0.40;;;12.70;99.90;;;;;;5044455;28;20057;-77
2022/07/10 03:22:28;;;;;;;0.65;0.30;;;12.70;99.90;;;;;;5032504;28;20116;-77
2022/07/10 03:24:54;;;;;;;0.57;0.35;;;12.70;99.90;;;;;;5037322;28;20049;-76
2022/07/10 03:27:19;;;;;;;0.50;0.25;;;12.70;99.90;;;;;;5022413;28;20494;-77
2022/07/10 03:29:46;;;;;;;3.20;0.45;;;12.70;99.90;;;;;;5041697;28;20072;-77
2022/07/10 03:32:11;;;;;;;0.57;0.10;;;12.70;99.90;;;;;;5038652;28;20088;-77
2022/07/10 03:34:37;;;;;;;0.40;0.15;;;12.70;99.90;;;;;;5040962;28;20702;-76
2022/07/10 03:37:03;;;;;;;4.45;0.60;;;12.70;99.90;;;;;;5043483;28;20063;-76
2022/07/10 03:39:29;;;;;;;1.30;0.28;;;12.70;99.90;;;;;;5041211;28;20037;-76
2022/07/10 03:41:54;;;;;;;1.45;0.40;;;12.70;99.90;;;;;;5052785;28;20041;-76
2022/07/10 03:44:20;;;;;;;0.63;0.30;;;12.70;99.90;;;;;;5025246;28;20407;-77
2022/07/10 03:46:46;;;;;;;2.03;0.57;;;12.80;99.90;;;;;;5043517;28;20045;-76
2022/07/10 03:49:11;;;;;;;0.43;0.13;;;12.80;99.90;;;;;;5042567;28;20128;-76
2022/07/10 03:51:37;;;;;;;2.50;0.30;;;12.90;99.90;;;;;;5037388;28;20041;-77
2022/07/10 03:54:03;;;;;;;1.00;0.60;;;12.90;99.90;;;;;;5040901;28;20053;-76
2022/07/10 03:59:12;;;;;;;0.20;0.20;;;12.90;99.90;;;;;;5043618;28;20532;-77
2022/07/10 04:01:38;;;;;;;0.20;0.20;;;13.00;99.90;;;;;;5039234;28;20033;-76
2022/07/10 04:04:04;;;;;;;2.35;0.30;;;13.00;99.90;;;;;;5040628;28;20429;-76
2022/07/10 04:06:29;;;;;;;0.20;0.20;;;13.00;99.90;;;;;;5042528;28;20037;-77
2022/07/10 04:08:55;;;;;;;1.35;0.20;;;13.10;99.90;;;;;;5040464;28;20061;-77
2022/07/10 04:11:21;;;;;;;0.75;0.28;;;13.10;99.90;;;;;;5045755;28;20064;-77
2022/07/10 04:13:46;;;;;;;0.40;0.30;;;13.10;99.90;;;;;;5043923;28;20134;-77
2022/07/10 04:16:13;;;;;;;1.08;0.20;;;13.10;99.90;;;;;;5027041;28;20033;-77
2022/07/10 04:18:42;;;;;;;0.63;0.20;;;13.10;99.90;;;;;;5025925;28;20037;-77
2022/07/10 04:21:07;;;;;;;1.83;0.40;;;13.10;99.90;;;;;;5041200;28;20045;-76
2022/07/10 04:23:33;;;;;;;0.20;0.13;;;13.10;99.90;;;;;;5048370;28;20040;-76
2022/07/10 04:26:00;;;;;;;0.25;0.20;;;13.20;99.90;;;;;;5042369;28;20036;-77
2022/07/10 04:28:25;;;;;;;1.35;0.40;;;13.20;99.90;;;;;;5041437;28;20030;-76
2022/07/10 04:30:51;;;;;;;0.28;0.20;;;13.30;99.90;;;;;;5044890;28;20043;-77
2022/07/10 04:33:17;;;;;;;0.65;0.30;;;13.30;99.90;;;;;;5046018;28;20414;-77
2022/07/10 04:35:42;;;;;;;3.20;0.25;;;13.30;99.90;;;;;;5058753;28;20033;-77
2022/07/10 04:38:08;;;;;;;1.23;0.40;;;13.40;99.90;;;;;;5042388;28;20033;-77
2022/07/10 04:40:33;;;;;;;0.55;0.40;;;13.40;99.90;;;;;;5041449;28;20095;-77
2022/07/10 04:42:59;;;;;;;0.90;0.40;;;13.40;99.90;;;;;;5046909;28;20568;-77
2022/07/10 04:45:25;;;;;;;1.38;0.20;;;13.50;99.90;;;;;;5040943;28;20076;-77
2022/07/10 04:47:51;;;;;;;0.65;0.30;;;13.50;99.90;;;;;;5053709;28;20029;-77
2022/07/10 04:50:16;;;;;;;0.57;0.25;;;13.50;99.90;;;;;;5042200;28;20037;-77
2022/07/10 04:52:42;;;;;;;1.33;0.30;;;13.50;99.90;;;;;;5040663;28;20041;-77
2022/07/10 04:55:08;;;;;;;1.20;0.25;;;13.50;99.90;;;;;;5041925;28;20550;-77
2022/07/10 04:57:33;;;;;;;1.48;0.43;;;13.60;99.90;;;;;;5039321;28;20041;-77
2022/07/10 04:59:59;;;;;;;2.92;0.40;;;13.60;99.90;;;;;;5043120;28;20518;-77
2022/07/10 05:02:25;;;;;;;2.30;0.45;;;13.60;99.90;;;;;;5022936;28;20029;-76
2022/07/10 05:04:50;;;;;;;1.45;0.30;;;13.70;99.90;;;;;;5024945;28;20131;-77
2022/07/10 05:07:16;;;;;;;2.85;0.40;;;13.70;99.90;;;;;;5041093;28;20120;-77
2022/07/10 05:09:42;;;;;;;3.65;0.30;;;13.80;99.90;;;;;;5045954;28;20494;-77
2022/07/10 05:12:07;;;;;;;0.73;0.30;;;13.80;99.90;;;;;;5040641;28;20076;-77
2022/07/10 05:14:33;;;;;;;1.85;0.30;;;13.90;99.90;;;;;;5056993;28;20046;-77
2022/07/10 05:16:59;;;;;;;1.23;0.40;;;14.00;99.90;;;;;;5026973;28;20037;-77
2022/07/10 05:19:24;;;;;;;0.60;0.30;;;14.00;99.90;;;;;;5042338;28;20558;-77
2022/07/10 05:21:50;;;;;;;0.17;0.10;;;14.00;99.90;;;;;;5042071;28;20041;-77
2022/07/10 05:24:15;;;;;;;3.65;0.70;;;14.10;99.90;;;;;;5038271;28;20104;-77
2022/07/10 05:26:41;;;;;;;0.20;0.13;;;14.10;99.90;;;;;;5022157;28;20398;-77
2022/07/10 05:29:07;;;;;;;1.08;0.30;;;14.20;99.90;;;;;;5042417;28;20128;-77
2022/07/10 05:31:32;;;;;;;1.10;0.20;;;14.20;99.90;;;;;;5058713;28;20076;-77
2022/07/10 05:33:58;;;;;;;2.22;0.40;;;14.20;99.90;;;;;;5024123;28;20029;-77
2022/07/10 05:36:24;;;;;;;0.95;0.40;;;14.30;99.90;;;;;;5046838;28;20441;-77
2022/07/10 05:38:49;;;;;;;0.75;0.20;;;14.30;99.90;;;;;;5040020;28;20132;-77
2022/07/10 05:41:15;;;;;;;1.17;0.45;;;14.30;99.90;;;;;;5040896;28;21055;-77
2022/07/10 05:43:41;;;;;;;3.40;0.20;;;14.30;99.90;;;;;;5045630;28;20041;-77
2022/07/10 05:46:06;;;;;;;0.88;0.25;;;14.30;99.90;;;;;;5041576;28;20037;-77
2022/07/10 05:48:32;;;;;;;2.03;0.50;;;14.30;99.90;;;;;;5038703;28;20386;-77
2022/07/10 05:50:58;;;;;;;0.30;0.25;;;14.30;99.90;;;;;;5041722;28;20051;-77
2022/07/10 05:53:23;;;;;;;2.55;0.75;;;14.30;99.90;;;;;;5039889;28;20124;-77
2022/07/10 05:55:49;;;;;;;3.15;0.45;;;14.30;99.90;;;;;;5038571;28;20140;-77
2022/07/10 05:58:15;;;;;;;2.33;0.30;;;14.40;99.90;;;;;;5038600;28;20094;-76
2022/07/10 06:00:43;;;;;;;1.77;0.38;;;14.40;99.90;;;;;;5022823;28;20478;-77
2022/07/10 06:03:09;;;;;;;0.68;0.40;;;14.40;99.90;;;;;;5043835;28;20041;-77
2022/07/10 06:05:35;;;;;;;1.27;0.40;;;14.50;99.90;;;;;;5047412;28;20029;-77
2022/07/10 06:08:01;;;;;;;1.15;0.28;;;14.40;99.90;;;;;;5038995;28;20041;-77
2022/07/10 06:10:27;;;;;;;1.30;0.40;;;14.60;99.90;;;;;;5045587;28;20029;-77
2022/07/10 06:12:52;;;;;;;2.08;0.73;;;14.60;99.90;;;;;;5042853;28;20533;-77
2022/07/10 06:15:18;;;;;;;3.80;0.47;;;14.60;99.90;;;;;;5041124;28;20037;-77
2022/07/10 06:17:43;;;;;;;1.20;0.30;;;14.60;99.90;;;;;;5039242;28;20159;-76
2022/07/10 06:20:10;;;;;;;3.15;0.30;;;14.60;99.90;;;;;;5038698;28;20037;-77
2022/07/10 06:22:35;;;;;;;0.13;0.10;;;14.70;99.90;;;;;;5041060;28;20084;-77
2022/07/10 06:25:06;;;;;;;2.45;0.50;;;14.70;99.90;;;;;;5039745;28;20077;-77
2022/07/10 06:27:33;;;;;;;1.40;0.30;;;14.70;99.90;;;;;;5021600;28;20122;-77
2022/07/10 06:29:59;;;;;;;0.40;0.28;;;14.80;99.90;;;;;;5037664;28;20501;-77
2022/07/10 06:32:26;;;;;;;0.52;0.32;;;14.80;99.90;;;;;;5039113;28;20025;-77
2022/07/10 06:34:52;;;;;;;1.30;0.45;;;14.80;99.90;;;;;;5037486;28;20040;-77
2022/07/10 06:37:19;;;;;;;1.65;0.47;;;14.80;99.90;;;;;;5040228;28;20045;-77
2022/07/10 06:39:46;;;;;;;0.85;0.30;;;14.80;99.90;;;;;;5023648;28;20577;-76
2022/07/10 06:42:12;;;;;;;1.17;0.40;;;14.80;99.90;;;;;;5019115;28;20036;-77
2022/07/10 06:44:38;;;;;;;1.77;0.40;;;14.80;99.90;;;;;;5041200;28;20662;-77
2022/07/10 06:49:49;;;;;;;0.73;0.25;;;14.70;99.90;;;;;;5057111;28;20119;-77
2022/07/10 06:52:15;;;;;;;0.50;0.40;;;14.70;99.90;;;;;;5040908;28;20045;-78
2022/07/10 06:54:42;;;;;;;1.13;0.25;;;14.60;99.90;;;;;;5046304;28;20446;-78
2022/07/10 06:57:08;;;;;;;0.65;0.32;;;14.60;99.90;;;;;;5033327;28;20382;-75
2022/07/10 06:59:34;;;;;;;1.70;0.40;;;14.60;99.90;;;;;;5039677;28;20080;-73
2022/07/10 07:01:59;;;;;;;0.65;0.40;;;14.50;99.90;;;;;;5037589;28;20073;-78
2022/07/10 07:04:25;;;;;;;2.47;0.40;;;14.50;99.90;;;;;;5039695;28;20506;-78
2022/07/10 07:06:51;;;;;;;2.33;0.43;;;14.60;99.90;;;;;;5033950;28;20534;-79
2022/07/10 07:09:16;;;;;;;1.05;0.50;;;14.60;99.90;;;;;;5020626;28;20045;-77
2022/07/10 07:11:42;;;;;;;1.70;0.30;;;14.60;99.90;;;;;;5033926;28;20037;-79
2022/07/10 07:14:07;;;;;;;1.33;0.45;;;14.70;99.90;;;;;;5036678;28;20840;-79
2022/07/10 07:16:42;;;;;;;0.40;0.17;;;14.80;99.90;;;;;;5039006;28;20119;-79
2022/07/10 07:19:11;;;;;;;0.82;0.30;;;14.80;99.90;;;;;;5020663;28;20055;-80
2022/07/10 07:24:21;;;;;;;1.58;0.40;;;14.90;99.90;;;;;;5034694;28;20507;-81
2022/07/10 07:26:47;;;;;;;0.20;0.10;;;14.90;99.90;;;;;;5022913;28;20028;-80
2022/07/10 07:29:14;;;;;;;0.90;0.40;;;15.00;99.90;;;;;;5038922;28;20040;-81
2022/07/10 07:31:40;;;;;;;0.82;0.40;;;15.10;99.90;;;;;;5040157;28;20094;-80
2022/07/10 07:34:06;;;;;;;1.50;0.30;;;15.10;99.90;;;;;;5035081;28;20040;-77
2022/07/10 07:36:31;;;;;;;0.22;0.20;;;15.30;99.90;;;;;;5039991;28;20456;-80
2022/07/10 07:38:57;;;;;;;6.40;0.45;;;15.20;99.90;;;;;;5038902;28;20758;-78
2022/07/10 07:41:22;;;;;;;1.85;0.30;;;15.30;99.90;;;;;;5036281;28;20037;-80
2022/07/10 07:43:49;;;;;;;0.85;0.15;;;15.30;99.90;;;;;;5041153;28;20049;-78
2022/07/10 07:46:15;;;;;;;1.02;0.22;;;15.30;99.90;;;;;;5040827;28;20044;-80
2022/07/10 07:48:40;;;;;;;0.63;0.20;;;15.30;99.90;;;;;;5050640;28;20029;-78
2022/07/10 07:51:06;;;;;;;0.52;0.20;;;15.20;99.90;;;;;;5026926;28;20091;-79
2022/07/10 07:53:32;;;;;;;0.32;0.10;;;15.20;99.90;;;;;;5059192;28;20041;-80
2022/07/10 07:55:57;;;;;;;0.88;0.20;;;15.20;99.90;;;;;;5035945;28;20886;-79
2022/07/10 07:58:23;;;;;;;1.27;0.40;;;15.20;99.90;;;;;;5035069;28;20049;-77
2022/07/10 08:00:49;;;;;;;0.77;0.20;;;15.30;99.90;;;;;;5038615;28;20047;-77
2022/07/10 08:03:15;;;;;;;0.88;0.30;;;15.30;99.90;;;;;;5041244;28;20045;-78
2022/07/10 08:05:41;;;;;;;1.90;0.47;;;15.30;99.90;;;;;;5036884;28;20029;-78
2022/07/10 08:08:08;;;;;;;0.75;0.20;;;15.30;99.90;;;;;;5041998;28;20048;-80
2022/07/10 08:10:34;;;;;;;0.25;0.13;;;15.40;99.90;;;;;;5034238;28;20041;-80
2022/07/10 08:13:00;;;;;;;0.05;0.03;;;15.30;99.90;;;;;;5032053;28;20045;-79
2022/07/10 08:15:26;;;;;;;0.22;0.10;;;15.20;99.90;;;;;;5038421;28;20691;-80
2022/07/10 08:17:56;;;;;;;0.20;0.17;;;15.20;99.90;;;;;;5036007;28;20288;-81
2022/07/10 08:20:23;;;;;;;1.70;0.35;;;15.10;99.90;;;;;;5040811;28;20041;-80
2022/07/10 08:22:49;;;;;;;0.45;0.30;;;15.10;99.90;;;;;;5040270;28;20150;-81
2022/07/10 08:25:15;;;;;;;1.13;0.40;;;15.00;99.90;;;;;;5035104;28;20060;-82
2022/07/10 08:27:41;;;;;;;0.55;0.20;;;15.00;99.90;;;;;;5036258;28;20233;-81
2022/07/10 08:30:11;;;;;;;0.65;0.20;;;15.00;99.90;;;;;;5036168;28;20417;-81
2022/07/10 08:32:39;;;;;;;1.38;0.45;;;15.10;99.90;;;;;;5055377;28;20406;-80
2022/07/10 08:35:06;;;;;;;1.17;0.30;;;15.10;99.90;;;;;;5038613;28;20067;-79
2022/07/10 08:37:40;;;;;;;0.25;0.17;;;15.10;99.90;;;;;;5049836;28;20041;-79
2022/07/10 08:40:08;;;;;;;1.00;0.22;;;15.20;99.90;;;;;;5038427;28;20040;-79
2022/07/10 08:42:34;;;;;;;0.30;0.20;;;15.20;99.90;;;;;;5036932;28;20041;-79
2022/07/10 08:44:59;;;;;;;2.22;0.40;;;15.30;99.90;;;;;;5041127;28;20048;-79
2022/07/10 08:47:25;;;;;;;0.10;0.10;;;15.30;99.90;;;;;;5042625;28;20666;-79
2022/07/10 08:49:51;;;;;;;1.00;0.30;;;15.40;99.90;;;;;;5050466;28;20098;-79
2022/07/10 08:52:29;;;;;;;0.22;0.13;;;15.50;99.90;;;;;;5036963;28;20486;-79
2022/07/10 08:54:56;;;;;;;1.33;0.20;;;15.60;99.90;;;;;;5056410;28;20118;-80
2022/07/10 08:57:23;;;;;;;0.63;0.20;;;15.70;99.90;;;;;;5018852;28;20033;-80
2022/07/10 08:59:49;;;;;;;2.05;0.20;;;15.80;99.90;;;;;;5036922;28;20048;-76
2022/07/10 09:02:14;;;;;;;0.68;0.35;;;15.90;99.90;;;;;;5038172;28;20052;-77
2022/07/10 09:04:40;;;;;;;1.25;0.32;;;16.00;99.90;;;;;;5055432;28;20375;-77
2022/07/10 09:07:06;;;;;;;0.55;0.20;;;16.10;99.90;;;;;;5034850;28;20037;-80
2022/07/10 09:09:31;;;;;;;0.47;0.17;;;16.10;99.90;;;;;;5022158;28;20052;-77
2022/07/10 09:11:58;;;;;;;0.40;0.15;;;16.00;99.90;;;;;;5035678;28;20910;-81
2022/07/10 09:14:27;;;;;;;0.10;0.03;;;16.00;99.90;;;;;;5035396;28;20510;-79
2022/07/10 09:16:53;;;;;;;0.40;0.20;;;15.90;99.90;;;;;;5038927;28;20055;-79
2022/07/10 09:19:25;;;;;;;0.57;0.10;;;15.80;99.90;;;;;;5038808;28;20041;-79
2022/07/10 09:21:52;;;;;;;0.80;0.32;;;15.80;99.90;;;;;;5038465;28;20569;-78
2022/07/10 09:24:19;;;;;;;0.32;0.20;;;15.70;99.90;;;;;;5036594;28;20402;-78
2022/07/10 09:27:05;;;;;;;0.10;0.10;;;15.60;99.90;;;;;;5040661;28;20072;-80
2022/07/10 09:29:32;;;;;;;0.20;0.20;;;15.50;99.90;;;;;;5035037;28;20490;-78
2022/07/10 09:32:00;;;;;;;0.50;0.20;;;15.50;99.90;;;;;;5035267;28;20123;-78
2022/07/10 09:34:37;;;;;;;0.75;0.30;;;15.60;99.90;;;;;;5037448;28;20170;-78
2022/07/10 09:37:21;;;;;;;1.08;0.22;;;15.60;99.90;;;;;;5028154;28;20047;-82
2022/07/10 09:39:58;;;;;;;0.10;0.10;;;15.70;99.90;;;;;;5041550;28;20090;-78
2022/07/10 09:42:38;;;;;;;0.20;0.10;;;15.70;99.90;;;;;;5052025;28;20605;-78
2022/07/10 09:45:13;;;;;;;0.90;0.20;;;15.70;99.90;;;;;;5040097;28;20144;-80
2022/07/10 09:48:00;;;;;;;1.17;0.20;;;15.70;99.90;;;;;;5056146;28;20098;-79
2022/07/10 09:50:33;;;;;;;0.47;0.20;;;15.70;99.90;;;;;;5043445;28;20569;-79
2022/07/10 09:53:06;;;;;;;0.20;0.20;;;15.70;99.90;;;;;;5038402;28;20127;-81
2022/07/10 09:55:36;;;;;;;0.15;0.10;;;15.60;99.90;;;;;;5040102;28;20044;-80
2022/07/10 09:58:07;;;;;;;0.68;0.28;;;15.60;99.90;;;;;;5038456;28;20045;-80
2022/07/10 10:00:34;;;;;;;0.20;0.20;;;15.60;99.90;;;;;;5040019;28;20041;-80
2022/07/10 10:03:05;;;;;;;0.88;0.50;;;15.70;99.90;;;;;;5020942;28;20033;-83
2022/07/10 10:05:54;;;;;;;0.68;0.30;;;15.70;99.90;;;;;;5035996;28;20028;-76
2022/07/10 10:08:24;;;;;;;0.40;0.20;;;15.70;99.90;;;;;;5038271;28;20491;-79
2022/07/10 10:10:51;;;;;;;0.28;0.20;;;15.70;99.90;;;;;;5054485;28;20128;-78
2022/07/10 10:13:19;;;;;;;1.63;0.30;;;15.70;99.90;;;;;;5021753;28;20128;-78
2022/07/10 10:15:47;;;;;;;0.55;0.30;;;15.70;99.90;;;;;;5038138;28;20127;-79
2022/07/10 10:18:15;;;;;;;1.38;0.50;;;15.70;99.90;;;;;;5042245;28;20051;-78
2022/07/10 10:20:45;;;;;;;0.45;0.30;;;15.70;99.90;;;;;;5031716;28;20119;-78
2022/07/10 10:23:14;;;;;;;0.82;0.30;;;15.70;99.90;;;;;;5054780;28;20068;-79
2022/07/10 10:25:41;;;;;;;0.30;0.20;;;15.70;99.90;;;;;;5052950;28;20043;-80
2022/07/10 10:28:09;;;;;;;0.90;0.43;;;15.80;99.90;;;;;;5033568;28;20377;-80
2022/07/10 10:30:45;;;;;;;0.50;0.30;;;15.80;99.90;;;;;;5037925;28;20032;-80
2022/07/10 10:33:42;;;;;;;3.25;0.52;;;15.80;99.90;;;;;;5038412;28;20123;-77
2022/07/10 10:36:13;;;;;;;1.10;0.32;;;15.90;99.90;;;;;;5041885;28;20224;-77
2022/07/10 10:38:48;;;;;;;0.65;0.30;;;15.90;99.90;;;;;;5040798;28;20025;-79
2022/07/10 10:41:23;;;;;;;0.82;0.35;;;15.90;99.90;;;;;;5037130;28;20037;-80
2022/07/10 10:44:07;;;;;;;0.85;0.30;;;15.90;99.90;;;;;;5052912;28;20183;-80
2022/07/10 10:46:34;;;;;;;0.40;0.30;;;15.90;99.90;;;;;;5037650;28;20137;-78
2022/07/10 10:49:07;;;;;;;0.52;0.38;;;15.90;99.90;;;;;;5024324;28;20033;-80
2022/07/10 10:52:04;;;;;;;1.33;0.40;;;16.00;99.90;;;;;;5018586;28;20055;-79
2022/07/10 10:54:31;;;;;;;0.90;0.40;;;16.10;99.90;;;;;;5040450;28;20037;-79
2022/07/10 10:57:13;;;;;;;0.52;0.40;;;16.10;99.90;;;;;;5037112;28;20064;-78
2022/07/10 10:59:47;;;;;;;2.42;0.40;;;16.10;99.90;;;;;;5040205;28;20389;-80
2022/07/10 11:02:27;;;;;;;0.68;0.30;;;16.10;99.90;;;;;;5020199;28;20106;-79
2022/07/10 11:05:12;;;;;;;1.23;0.50;;;16.00;99.90;;;;;;5055081;28;20132;-78
2022/07/10 11:07:57;;;;;;;0.45;0.30;;;16.00;99.90;;;;;;5047965;28;20036;-78
2022/07/10 11:10:38;;;;;;;1.27;0.38;;;15.90;99.90;;;;;;5040147;28;20045;-80
2022/07/10 11:13:09;;;;;;;1.08;0.47;;;15.90;99.90;;;;;;5049619;28;20061;-80
2022/07/10 11:15:45;;;;;;;0.85;0.47;;;16.00;99.90;;;;;;5038157;28;20037;-78
2022/07/10 11:18:16;;;;;;;0.85;0.50;;;16.00;99.90;;;;;;5029548;28;20559;-78
2022/07/10 11:20:49;;;;;;;1.13;0.57;;;16.10;99.90;;;;;;5035710;28;20382;-79
2022/07/10 11:23:21;;;;;;;1.55;0.40;;;16.30;99.90;;;;;;5033806;28;20409;-80
2022/07/10 11:26:01;;;;;;;1.05;0.45;;;16.40;99.90;;;;;;5053151;28;20034;-79
2022/07/10 11:28:47;;;;;;;0.80;0.40;;;16.60;99.90;;;;;;5039079;28;20040;-79
2022/07/10 11:31:13;;;;;;;3.25;0.50;;;16.60;99.90;;;;;;5036832;28;20522;-80
2022/07/10 11:33:44;;;;;;;1.73;0.63;;;16.80;99.90;;;;;;5054189;28;20055;-80
2022/07/10 11:36:15;;;;;;;4.63;0.60;;;16.80;99.90;;;;;;5038904;28;20047;-79
2022/07/10 11:38:42;;;;;;;3.30;0.40;;;16.90;99.90;;;;;;5043947;28;20048;-80
2022/07/10 11:41:21;;;;;;;0.52;0.30;;;17.00;99.90;;;;;;5038313;28;20403;-80
2022/07/10 11:43:57;;;;;;;1.00;0.50;;;17.10;99.90;;;;;;5040280;28;20055;-79
2022/07/10 11:46:28;;;;;;;0.25;0.20;;;17.10;99.90;;;;;;5035532;28;20120;-79
2022/07/10 11:48:56;;;;;;;0.50;0.28;;;17.00;99.90;;;;;;5039378;28;20036;-79
2022/07/10 11:51:28;;;;;;;2.70;0.63;;;17.00;99.90;;;;;;5054279;28;20057;-80
2022/07/10 11:53:56;;;;;;;0.77;0.50;;;16.90;99.90;;;;;;5038342;28;20041;-80
2022/07/10 11:56:22;;;;;;;0.65;0.50;;;16.90;99.90;;;;;;5035188;28;20049;-80
2022/07/10 11:58:58;;;;;;;0.88;0.47;;;17.00;99.90;;;;;;5021676;28;20041;-80
2022/07/10 12:01:24;;;;;;;0.85;0.50;;;17.00;99.90;;;;;;5035904;28;20532;-79
2022/07/10 12:03:58;;;;;;;0.60;0.35;;;17.00;99.90;;;;;;5037473;28;20041;-75
2022/07/10 12:06:25;;;;;;;0.55;0.38;;;16.90;99.90;;;;;;5038033;28;20060;-80
2022/07/10 12:08:51;;;;;;;0.57;0.40;;;16.70;99.90;;;;;;5018834;28;20073;-79
2022/07/10 12:11:18;;;;;;;0.73;0.47;;;16.60;99.90;;;;;;5034797;28;20461;-80
2022/07/10 12:13:45;;;;;;;0.50;0.30;;;16.60;99.90;;;;;;5023714;28;20140;-78
2022/07/10 12:16:11;;;;;;;1.65;0.47;;;16.70;99.90;;;;;;5048153;28;20069;-79
2022/07/10 12:18:38;;;;;;;1.95;0.30;;;16.80;99.90;;;;;;5046774;28;20053;-79
2022/07/10 12:21:04;;;;;;;1.75;0.55;;;16.80;99.90;;;;;;5021965;28;20072;-79
2022/07/10 12:23:30;;;;;;;2.63;0.40;;;16.90;99.90;;;;;;5038175;28;20510;-77
2022/07/10 12:25:56;;;;;;;0.85;0.45;;;16.90;99.90;;;;;;5038848;28;20036;-80
2022/07/10 12:28:22;;;;;;;0.68;0.50;;;16.80;99.90;;;;;;5043495;28;20044;-78
2022/07/10 12:30:49;;;;;;;0.35;0.30;;;16.80;99.90;;;;;;5022418;28;20133;-78
2022/07/10 12:33:22;;;;;;;0.70;0.35;;;16.60;99.90;;;;;;5037116;28;20375;-78
2022/07/10 12:35:55;;;;;;;1.17;0.63;;;16.50;99.90;;;;;;5040076;28;20033;-78
2022/07/10 12:38:22;;;;;;;1.90;0.40;;;16.40;99.90;;;;;;5039012;28;20228;-78
2022/07/10 12:40:49;;;;;;;1.27;0.40;;;16.40;99.90;;;;;;5019251;28;20087;-79
2022/07/10 12:43:28;;;;;;;1.08;0.50;;;16.40;99.90;;;;;;5031343;28;20509;-78
2022/07/10 12:46:12;;;;;;;0.70;0.40;;;16.40;99.90;;;;;;5050307;28;20034;-79
2022/07/10 12:48:40;;;;;;;0.80;0.47;;;16.40;99.90;;;;;;5040012;28;20043;-78
2022/07/10 12:51:26;;;;;;;1.77;0.30;;;16.40;99.90;;;;;;5034547;28;20330;-78
2022/07/10 12:53:52;;;;;;;1.75;0.60;;;16.40;99.90;;;;;;5020657;28;20049;-78
2022/07/10 12:56:33;;;;;;;0.63;0.40;;;16.40;99.90;;;;;;5032536;28;20049;-79
2022/07/10 12:59:00;;;;;;;0.60;0.38;;;16.40;99.90;;;;;;5053018;28;20068;-78